Search for airport 
image banner adimage banner adimage banner ad
image banner ad

65CA - Sce San Joaquin

Located in Tulare, United States

ICAO - 65CA, IATA -

Data provided by Airmate  

General information

Coordinates: N36°10'59" W119°20'1"
Elevation is 279 feet MSL.
Magnetic variation is 15° East
View others Airports in California

Operational data

Special qualification required
Current time UTC:
Current local time:
Weather at : KVIS - Visalia Muni ( 16 km )
METAR: KVIS 221356Z AUTO 31006KT 10SM CLR 18/13 A2990 RMK AO2 SLP126 T01830128
TAF: KVIS 221120Z 2212/2312 VRB05KT P6SM SKC
View NOTAMs / SUP AIP / TFR affecting this airport [VIEW]
Communications frequencies: [VIEW]

Runways:

Airport contact information

Address: Tulare United States

Satellite view of 65CA